Time;durP1;ratioP1;P1;durP2;ratioP2;P2;SDS_P1;SDS_P2;PMS_P1;PMS_P2;Temp;Humidity;BMP_temperature;BMP_pressure;BME280_temperature;BME280_humidity;BME280_pressure;Samples;Min_cycle;Max_cycle;Signal;HPM_P1;HPM_P2
2022/05/23 00:03:52;;;;;;;11.50;7.07;;;;;;;16.39;79.05;100746.41;10398374;28;20033;-72
2022/05/23 00:08:53;;;;;;;11.05;7.65;;;;;;;16.42;77.09;100748.66;10398022;28;20033;-73
2022/05/23 00:13:53;;;;;;;23.65;8.05;;;;;;;16.31;79.46;100726.81;10415667;28;20118;-72
2022/05/23 00:18:54;;;;;;;9.70;7.85;;;;;;;16.34;79.09;100715.41;10415542;28;20396;-72
2022/05/23 00:23:54;;;;;;;7.85;7.15;;;;;;;16.29;80.71;100699.72;10416080;28;20037;-72
2022/05/23 00:28:54;;;;;;;10.90;8.52;;;;;;;16.33;79.78;100692.69;10415189;28;20128;-72
2022/05/23 00:39:14;;;;;;;11.40;7.72;;;;;;;16.23;79.24;100693.31;10414609;28;20436;-73
2022/05/23 00:44:14;;;;;;;9.80;8.57;;;;;;;16.14;78.16;100691.19;10401014;28;20033;-72
2022/05/23 00:49:15;;;;;;;12.38;9.25;;;;;;;15.99;78.40;100688.97;10422672;28;20031;-73
2022/05/23 00:54:15;;;;;;;14.93;9.40;;;;;;;15.86;80.52;100675.53;10409495;28;20087;-73
2022/05/23 00:59:19;;;;;;;14.93;8.82;;;;;;;15.76;78.05;100681.59;10405492;28;20036;-73
2022/05/23 01:04:19;;;;;;;16.98;7.97;;;;;;;15.63;78.00;100668.97;10405312;28;20033;-72
2022/05/23 01:09:25;;;;;;;22.30;8.93;;;;;;;15.50;78.49;100671.94;10422488;28;20473;-73
2022/05/23 01:14:26;;;;;;;9.40;8.50;;;;;;;15.41;78.91;100663.28;10422317;28;20049;-72
2022/05/23 01:19:26;;;;;;;11.60;8.60;;;;;;;15.33;78.87;100658.97;10423347;28;20058;-72
2022/05/23 01:24:30;;;;;;;11.38;9.80;;;;;;;15.22;79.83;100661.69;10422097;28;20469;-72
2022/05/23 01:29:31;;;;;;;9.68;7.85;;;;;;;15.17;79.13;100667.84;10404626;28;20384;-73
2022/05/23 01:34:31;;;;;;;11.48;9.68;;;;;;;15.07;78.64;100665.69;10422834;28;20048;-73
2022/05/23 01:39:32;;;;;;;17.02;8.38;;;;;;;15.00;79.86;100651.34;10421388;28;20148;-73
2022/05/23 01:44:33;;;;;;;13.00;9.55;;;;;;;15.01;80.10;100652.97;10403414;28;20048;-73
2022/05/23 01:49:33;;;;;;;15.68;8.70;;;;;;;15.04;82.22;100654.41;10420413;28;20029;-72
2022/05/23 01:54:35;;;;;;;18.90;9.60;;;;;;;15.08;83.91;100650.16;10421242;28;20465;-72
2022/05/23 02:04:54;;;;;;;22.30;8.25;;;;;;;15.26;88.03;100650.09;10419861;28;20037;-73
2022/05/23 02:09:55;;;;;;;10.65;9.00;;;;;;;15.39;87.64;100642.75;10428691;28;20037;-75
2022/05/23 02:14:55;;;;;;;18.67;8.82;;;;;;;15.56;84.59;100649.16;10423991;28;20439;-73
2022/05/23 02:19:56;;;;;;;10.60;8.27;;;;;;;15.60;85.82;100633.97;10423191;28;20091;-74
2022/05/23 02:24:56;;;;;;;9.50;8.70;;;;;;;15.56;85.53;100621.88;10422189;28;20033;-72
2022/05/23 02:29:57;;;;;;;10.15;7.68;;;;;;;15.51;85.72;100617.13;10403187;28;20057;-73
2022/05/23 02:34:58;;;;;;;15.50;9.02;;;;;;;15.53;87.49;100609.50;10418013;28;20037;-74
2022/05/23 02:39:58;;;;;;;11.20;9.77;;;;;;;15.58;85.97;100598.72;10419105;28;20041;-73
2022/05/23 02:44:58;;;;;;;15.75;9.25;;;;;;;15.57;88.83;100585.31;10419423;28;20507;-73
2022/05/23 02:49:59;;;;;;;12.18;9.50;;;;;;;15.61;87.57;100580.22;10400910;28;20044;-73
2022/05/23 02:55:00;;;;;;;12.00;9.60;;;;;;;15.59;85.06;100567.63;10401893;28;20029;-73
2022/05/23 03:00:01;;;;;;;12.60;7.85;;;;;;;15.55;86.20;100555.53;10418535;28;20107;-74
2022/05/23 03:05:01;;;;;;;14.35;9.80;;;;;;;15.54;86.42;100544.88;10417025;28;20499;-73
2022/05/23 03:10:02;;;;;;;10.07;8.90;;;;;;;15.52;84.41;100530.63;10419453;28;20029;-73
2022/05/23 03:15:05;;;;;;;18.33;8.10;;;;;;;15.54;83.48;100526.59;10406375;28;20029;-73
2022/05/23 03:20:06;;;;;;;9.15;7.78;;;;;;;15.51;82.51;100518.06;10423035;28;20393;-73
2022/05/23 03:30:25;;;;;;;14.85;8.95;;;;;;;15.47;82.58;100506.75;10416743;28;20136;-73
2022/05/23 03:35:26;;;;;;;14.18;8.27;;;;;;;15.43;84.95;100497.41;10399843;28;20121;-73
2022/05/23 03:40:27;;;;;;;13.00;8.57;;;;;;;15.41;84.89;100494.09;10399101;28;20038;-73
2022/05/23 03:45:27;;;;;;;13.35;7.72;;;;;;;15.38;86.34;100471.91;10382530;28;20037;-73
2022/05/23 03:50:28;;;;;;;9.50;7.47;;;;;;;15.37;87.33;100462.91;10416442;28;20551;-74
2022/05/23 03:55:29;;;;;;;12.27;7.05;;;;;;;15.37;87.48;100459.34;10416492;28;20037;-72
2022/05/23 04:00:29;;;;;;;9.93;7.90;;;;;;;15.34;88.30;100457.91;10414398;28;20511;-73
2022/05/23 04:05:30;;;;;;;13.73;7.03;;;;;;;15.36;88.33;100453.06;10415972;28;20388;-73
2022/05/23 04:10:30;;;;;;;17.23;8.55;;;;;;;15.40;88.89;100459.69;10398293;28;20099;-73
2022/05/23 04:15:31;;;;;;;10.63;7.50;;;;;;;15.49;88.21;100454.69;10416245;28;20037;-73
2022/05/23 04:20:31;;;;;;;11.02;7.43;;;;;;;15.52;89.32;100448.75;10414493;28;20026;-73
2022/05/23 04:25:32;;;;;;;8.52;6.60;;;;;;;15.52;87.85;100444.13;10397936;28;20029;-73
2022/05/23 04:30:32;;;;;;;9.15;7.22;;;;;;;15.56;88.11;100441.72;10413625;28;20412;-73
2022/05/23 04:35:32;;;;;;;8.75;7.03;;;;;;;15.67;86.64;100432.72;10426928;28;20136;-73
2022/05/23 04:40:34;;;;;;;11.70;7.22;;;;;;;15.73;87.40;100419.97;10419873;28;20117;-73
2022/05/23 04:45:35;;;;;;;11.00;8.02;;;;;;;15.78;87.13;100403.72;10382410;28;20053;-73
2022/05/23 04:50:35;;;;;;;7.90;6.90;;;;;;;15.93;87.69;100403.19;10397166;28;20048;-72
2022/05/23 04:55:37;;;;;;;17.17;6.57;;;;;;;16.34;87.01;100391.06;10414103;28;20500;-72
2022/05/23 05:00:39;;;;;;;12.27;7.53;;;;;;;16.53;85.54;100399.84;10412770;28;20397;-74
2022/05/23 05:05:39;;;;;;;9.75;6.43;;;;;;;16.55;85.37;100391.38;10413451;28;20037;-74
2022/05/23 05:10:40;;;;;;;11.10;7.88;;;;;;;16.48;85.56;100386.09;10414676;28;20041;-74
2022/05/23 05:15:40;;;;;;;9.05;6.70;;;;;;;16.52;85.95;100379.84;10413366;28;20034;-73
2022/05/23 05:20:41;;;;;;;7.22;6.30;;;;;;;16.52;85.35;100379.03;10413305;28;20479;-73
2022/05/23 05:25:41;;;;;;;11.35;7.07;;;;;;;16.69;84.92;100362.63;10413748;28;20044;-74
2022/05/23 05:30:44;;;;;;;9.20;7.10;;;;;;;16.81;84.15;100354.34;10416637;28;20045;-74
2022/05/23 05:35:57;;;;;;;9.23;6.90;;;;;;;16.84;83.41;100360.13;10402681;28;20064;-73
2022/05/23 05:41:04;;;;;;;20.33;7.70;;;;;;;16.82;83.68;100347.81;10421220;28;20113;-74
2022/05/23 05:46:09;;;;;;;12.30;6.93;;;;;;;16.69;84.13;100340.75;10421604;28;20029;-74
2022/05/23 05:51:09;;;;;;;7.65;6.20;;;;;;;16.66;83.72;100344.81;10426012;28;20081;-74
2022/05/23 05:56:10;;;;;;;18.95;7.38;;;;;;;16.76;84.50;100335.97;10407173;28;20477;-74
2022/05/23 06:01:10;;;;;;;17.23;8.93;;;;;;;16.92;84.71;100329.63;10419850;28;20041;-73
2022/05/23 06:11:30;;;;;;;9.50;7.18;;;;;;;17.22;82.04;100325.59;10420627;28;20041;-76
2022/05/23 06:16:33;;;;;;;8.23;6.88;;;;;;;17.29;81.55;100330.88;10402533;28;20034;-73
2022/05/23 06:21:33;;;;;;;7.60;6.93;;;;;;;17.24;81.86;100314.41;10421660;28;20076;-74
2022/05/23 06:26:33;;;;;;;7.78;6.85;;;;;;;17.19;82.29;100305.03;10424090;28;20488;-73
2022/05/23 06:31:34;;;;;;;7.90;7.03;;;;;;;17.12;82.51;100312.63;10421028;28;20049;-74
2022/05/23 06:36:37;;;;;;;14.40;7.60;;;;;;;17.35;81.30;100297.84;10418617;28;20041;-73
2022/05/23 06:41:37;;;;;;;12.18;8.60;;;;;;;17.72;80.57;100290.81;10417356;28;20038;-73
2022/05/23 06:46:38;;;;;;;21.98;7.85;;;;;;;18.01;79.93;100294.13;10418657;28;20033;-73
2022/05/23 06:51:39;;;;;;;11.32;7.65;;;;;;;18.07;80.86;100296.63;10418055;28;20041;-74
2022/05/23 06:56:39;;;;;;;14.13;7.03;;;;;;;18.29;79.85;100290.22;10400597;28;20521;-73
2022/05/23 07:01:39;;;;;;;11.70;6.70;;;;;;;18.35;79.72;100291.91;10401747;28;20134;-73
2022/05/23 07:17:21;;;;;;;13.15;6.80;;;;;;;18.39;79.43;100284.81;10417205;28;20041;-74
2022/05/23 07:22:22;;;;;;;10.00;7.78;;;;;;;18.48;79.21;100274.19;10399971;28;20362;-74
2022/05/23 07:27:26;;;;;;;10.32;7.65;;;;;;;18.78;78.76;100276.28;10415925;28;20391;-73
2022/05/23 07:32:26;;;;;;;15.85;7.60;;;;;;;19.10;77.92;100287.09;10418184;28;20053;-73
2022/05/23 07:37:28;;;;;;;8.80;6.55;;;;;;;19.50;77.59;100277.34;10399945;28;20041;-72
2022/05/23 07:42:29;;;;;;;8.23;7.30;;;;;;;19.77;76.98;100270.81;10416871;28;20120;-74
2022/05/23 07:47:29;;;;;;;9.30;6.55;;;;;;;20.07;76.56;100259.81;10416474;28;20461;-74
2022/05/23 07:52:30;;;;;;;12.23;6.80;;;;;;;20.14;76.21;100262.28;10416160;28;20095;-73
2022/05/23 08:02:43;;;;;;;8.20;7.38;;;;;;;20.38;74.66;100248.75;10415840;28;20041;-73
2022/05/23 08:07:44;;;;;;;9.45;7.57;;;;;;;20.71;74.40;100238.22;10398899;28;20461;-73
2022/05/23 08:12:47;;;;;;;8.32;7.53;;;;;;;21.94;72.62;100227.28;10398170;28;20117;-73
2022/05/23 08:17:48;;;;;;;8.18;7.38;;;;;;;24.05;68.27;100218.72;10414397;28;20076;-74
2022/05/23 08:22:54;;;;;;;10.25;8.13;;;;;;;24.34;65.36;100216.47;10420861;28;20033;-73
2022/05/23 08:27:55;;;;;;;15.73;7.90;;;;;;;24.32;65.20;100199.38;10416630;28;20368;-74
2022/05/23 08:32:55;;;;;;;17.63;7.75;;;;;;;24.18;68.65;100193.00;10416705;28;20053;-74
2022/05/23 08:37:55;;;;;;;8.65;7.72;;;;;;;23.84;70.28;100188.66;10397466;28;20097;-73
2022/05/23 08:42:57;;;;;;;13.88;8.05;;;;;;;23.16;69.06;100184.47;10380987;28;20037;-75
2022/05/23 08:48:11;;;;;;;9.48;8.05;;;;;;;22.58;68.75;100192.97;10415434;28;20037;-74
2022/05/23 08:53:14;;;;;;;12.55;8.80;;;;;;;22.32;70.33;100172.31;10397022;28;20068;-73
2022/05/23 08:58:34;;;;;;;8.48;7.72;;;;;;;22.42;70.45;100170.25;10416515;28;20084;-74
2022/05/23 09:03:39;;;;;;;10.52;8.50;;;;;;;22.26;68.45;100168.78;10399994;28;20047;-74
2022/05/23 09:08:59;;;;;;;9.07;8.07;;;;;;;21.74;69.50;100145.59;10405876;28;20030;-72
2022/05/23 09:14:00;;;;;;;11.38;8.85;;;;;;;21.50;69.62;100162.88;10423748;28;20493;-74
2022/05/23 09:19:53;;;;;;;16.40;10.68;;;;;;;21.23;69.59;100154.28;10405801;28;20045;-72
2022/05/23 09:24:56;;;;;;;14.00;10.35;;;;;;;21.05;69.87;100156.59;10411079;28;20124;-74
2022/05/23 09:29:58;;;;;;;13.82;8.75;;;;;;;21.13;70.33;100147.72;10427197;28;20083;-73
2022/05/23 09:35:04;;;;;;;17.73;11.00;;;;;;;20.82;70.48;100127.00;10428739;28;20095;-73
2022/05/23 09:40:05;;;;;;;19.43;10.40;;;;;;;20.59;72.09;100118.34;10423269;28;20037;-73
2022/05/23 09:50:59;;;;;;;11.52;9.48;;;;;;;20.83;73.14;100101.13;10420830;28;20381;-74
2022/05/23 09:56:21;;;;;;;15.85;11.00;;;;;;;21.11;72.71;100089.38;10420681;28;20116;-75
2022/05/23 10:01:25;;;;;;;20.10;9.68;;;;;;;;;;10420808;28;20457;-75
2022/05/23 10:06:46;;;;;;;13.05;9.75;;;;;;;21.65;72.01;100072.94;10420834;28;20469;-73
2022/05/23 10:11:53;;;;;;;12.95;9.90;;;;;;;21.77;71.78;100073.38;10422231;28;20033;-74
2022/05/23 10:16:57;;;;;;;11.93;9.80;;;;;;;21.68;71.42;100053.91;10421136;28;20137;-75
2022/05/23 10:22:06;;;;;;;10.57;9.68;;;;;;;22.04;70.58;100054.28;10402491;28;20473;-74
2022/05/23 10:27:15;;;;;;;16.33;10.35;;;;;;;22.46;69.88;100035.28;10419517;28;20045;-75
2022/05/23 10:32:41;;;;;;;17.67;9.80;;;;;;;22.87;67.88;100031.91;10401612;28;20046;-74
2022/05/23 10:37:42;;;;;;;9.20;8.35;;;;;;;23.42;67.48;100032.94;10420059;28;20095;-73
2022/05/23 10:43:02;;;;;;;12.20;9.07;;;;;;;23.34;64.71;100019.00;10403685;28;20056;-73
2022/05/23 10:48:37;;;;;;;12.27;9.70;;;;;;;23.83;66.26;100012.81;10420910;28;20026;-74
2022/05/23 10:53:56;;;;;;;14.30;10.23;;;;;;;24.54;65.71;100009.66;10425041;28;20030;-73
2022/05/23 10:59:30;;;;;;;15.13;11.25;;;;;;;24.81;64.33;99994.88;10402679;28;20041;-72
2022/05/23 11:05:02;;;;;;;16.67;10.95;;;;;;;24.85;65.40;99984.00;10418111;28;20424;-74
2022/05/23 11:10:13;;;;;;;15.82;12.43;;;;;;;24.56;63.12;99982.47;10385282;28;20075;-75
2022/05/23 11:15:32;;;;;;;12.70;11.50;;;;;;;24.27;62.31;99969.84;10401567;28;20036;-75
2022/05/23 11:20:34;;;;;;;17.13;10.73;;;;;;;24.00;65.18;99959.66;10417426;28;20041;-74
2022/05/23 11:25:36;;;;;;;15.55;10.48;;;;;;;23.64;66.68;99965.94;10399456;28;20373;-74
2022/05/23 11:35:56;;;;;;;19.63;10.50;;;;;;;23.34;66.98;99956.28;10402076;28;20443;-74
2022/05/23 11:41:27;;;;;;;17.38;11.73;;;;;;;23.30;67.46;99935.09;10399337;28;20068;-74
2022/05/23 11:46:48;;;;;;;15.95;11.30;;;;;;;23.06;68.09;99927.00;10398599;28;20048;-74
2022/05/23 11:52:01;;;;;;;12.55;10.30;;;;;;;22.93;68.20;99914.75;10366554;28;20064;-74
2022/05/23 11:57:02;;;;;;;18.05;11.52;;;;;;;23.25;68.20;99913.91;10418058;28;20033;-73
2022/05/23 12:02:08;;;;;;;14.65;10.13;;;;;;;23.42;67.93;99900.31;10416344;28;20119;-74
2022/05/23 12:07:15;;;;;;;;;;;;;;;23.47;67.75;99893.03;10425236;28;20036;-73
2022/05/23 12:12:26;;;;;;;;;;;;;;;23.56;68.00;99889.25;10383336;28;20319;-74
2022/05/23 12:17:31;;;;;;;16.42;10.63;;;;;;;23.14;68.53;99880.16;10416416;28;19967;-74
2022/05/23 12:22:34;;;;;;;13.82;10.38;;;;;;;22.52;68.99;99879.59;10413942;28;20128;-74
2022/05/23 12:27:35;;;;;;;13.70;10.80;;;;;;;22.21;69.19;99871.84;10398102;28;20088;-74
2022/05/23 12:32:35;;;;;;;14.30;10.35;;;;;;;22.17;69.17;99903.06;10396865;28;20059;-73
2022/05/23 12:37:38;;;;;;;16.42;11.98;;;;;;;21.80;69.79;99905.50;10413586;28;20033;-72
2022/05/23 12:42:47;;;;;;;16.67;12.48;;;;;;;20.87;71.16;99917.84;10422753;28;20022;-74
2022/05/23 12:47:56;;;;;;;19.23;13.68;;;;;;;19.83;73.07;99893.31;10407553;28;20087;-76
2022/05/23 12:53:02;;;;;;;18.38;13.27;;;;;;;19.08;79.69;99888.66;10423335;28;20060;-76
2022/05/23 12:58:09;;;;;;;24.38;14.98;;;;;;;18.78;81.07;99916.94;10422926;28;20041;-74
2022/05/23 13:03:28;;;;;;;19.65;15.00;;;;;;;18.38;83.95;99956.13;10421622;28;20045;-75
2022/05/23 13:08:35;;;;;;;20.83;17.85;;;;;;;18.09;84.64;99943.75;10422558;28;20036;-75
2022/05/23 13:13:40;;;;;;;23.50;16.65;;;;;;;17.78;85.86;99931.88;10404772;28;20079;-74
2022/05/23 13:24:03;;;;;;;30.02;18.73;;;;;;;17.27;88.45;99904.28;10421946;28;20033;-74
2022/05/23 13:29:08;;;;;;;35.08;22.80;;;;;;;17.05;88.52;99865.31;10404864;28;20061;-75
2022/05/23 13:34:10;;;;;;;39.28;25.92;;;;;;;16.75;90.37;99855.81;10407211;28;20466;-74
2022/05/23 13:39:14;;;;;;;48.08;29.10;;;;;;;16.63;94.68;99847.81;10422770;28;20038;-74
2022/05/23 13:44:21;;;;;;;36.75;31.10;;;;;;;16.62;99.59;99861.72;10424211;28;20033;-75
2022/05/23 13:49:31;;;;;;;40.85;30.08;;;;;;;16.51;100.00;99861.66;10424116;28;20026;-75
2022/05/23 13:54:35;;;;;;;39.63;29.77;;;;;;;16.35;100.00;99831.75;10408686;28;20033;-75
2022/05/23 13:59:40;;;;;;;39.28;30.20;;;;;;;16.57;100.00;99818.81;10405220;28;20033;-75
2022/05/23 14:04:41;;;;;;;38.35;26.45;;;;;;;16.80;100.00;99820.31;10403373;28;20465;-75
2022/05/23 14:09:44;;;;;;;31.23;21.63;;;;;;;16.72;100.00;99807.97;10402659;28;20155;-74
2022/05/23 14:14:58;;;;;;;31.40;21.67;;;;;;;16.88;100.00;99797.13;10404217;28;20033;-75
2022/05/23 14:20:25;;;;;;;24.17;17.63;;;;;;;16.74;100.00;99792.09;10420436;28;20025;-75
2022/05/23 14:25:30;;;;;;;27.57;18.50;;;;;;;16.63;100.00;99782.22;10403981;28;20465;-76
2022/05/23 14:30:35;;;;;;;26.58;16.02;;;;;;;16.31;100.00;99779.56;10422012;28;20061;-75
2022/05/23 14:35:38;;;;;;;19.23;13.90;;;;;;;15.99;100.00;99804.97;10407251;28;20025;-76
2022/05/23 14:40:41;;;;;;;23.42;13.50;;;;;;;15.74;100.00;99834.78;10427616;28;20044;-77
2022/05/23 14:45:52;;;;;;;18.85;15.00;;;;;;;15.55;100.00;99824.19;10414716;28;20032;-77
2022/05/23 14:51:13;;;;;;;22.55;12.88;;;;;;;15.41;100.00;99806.56;10433444;28;20030;-75
2022/05/23 14:56:16;;;;;;;18.88;12.38;;;;;;;15.08;100.00;99816.53;10431483;28;20041;-77
2022/05/23 15:01:22;;;;;;;15.05;12.65;;;;;;;14.76;100.00;99837.38;10412971;28;20087;-75
2022/05/23 15:06:23;;;;;;;14.50;11.37;;;;;;;14.58;100.00;99844.78;10412114;28;20029;-77
2022/05/23 15:11:27;;;;;;;18.25;14.88;;;;;;;14.47;100.00;99845.66;10410856;28;20033;-75
2022/05/23 15:16:30;;;;;;;27.52;16.38;;;;;;;14.41;100.00;99822.13;10427862;28;20384;-75
2022/05/23 15:21:30;;;;;;;20.60;13.80;;;;;;;14.25;100.00;99836.56;10420919;28;20477;-77
2022/05/23 15:26:31;;;;;;;19.98;14.63;;;;;;;14.23;100.00;99808.75;10417407;28;20068;-75
2022/05/23 15:31:31;;;;;;;19.33;13.38;;;;;;;14.21;100.00;99819.09;10399940;28;20503;-75
2022/05/23 15:36:32;;;;;;;16.55;14.02;;;;;;;14.09;100.00;99844.47;10400302;28;20067;-77
2022/05/23 15:41:33;;;;;;;16.63;12.30;;;;;;;14.00;100.00;99851.41;10417725;28;20086;-76
2022/05/23 15:46:34;;;;;;;16.00;12.52;;;;;;;14.02;100.00;99852.00;10383640;28;20033;-75
2022/05/23 15:51:34;;;;;;;15.05;11.70;;;;;;;14.05;100.00;99858.84;10417027;28;20037;-75
2022/05/23 15:56:35;;;;;;;15.30;10.05;;;;;;;13.98;100.00;99864.44;10416087;28;20068;-79
2022/05/23 16:01:35;;;;;;;17.83;11.35;;;;;;;13.95;100.00;99857.59;10416389;28;20030;-76
2022/05/23 16:06:35;;;;;;;11.93;9.00;;;;;;;13.89;100.00;99852.31;10398554;28;20044;-75
2022/05/23 16:11:43;;;;;;;16.73;9.55;;;;;;;13.82;100.00;99851.66;10415961;28;20044;-76
2022/05/23 16:16:47;;;;;;;15.20;8.65;;;;;;;13.82;100.00;99852.47;10399884;28;20037;-75
2022/05/23 16:21:48;;;;;;;8.93;8.00;;;;;;;13.77;100.00;99843.38;10415566;28;20087;-76
2022/05/23 16:26:48;;;;;;;9.95;6.50;;;;;;;13.73;100.00;99860.19;10405540;28;20454;-77
2022/05/23 16:31:49;;;;;;;23.23;6.72;;;;;;;13.73;100.00;99870.25;10436016;28;20057;-79
2022/05/23 16:36:50;;;;;;;14.50;6.82;;;;;;;13.77;100.00;99873.31;10416126;28;20033;-77
2022/05/23 16:41:51;;;;;;;7.90;6.50;;;;;;;13.78;100.00;99872.22;10421020;28;20044;-75
2022/05/23 16:46:52;;;;;;;7.53;6.32;;;;;;;13.77;100.00;99863.25;10435150;28;20060;-76
2022/05/23 16:51:52;;;;;;;4.55;3.97;;;;;;;13.72;100.00;99874.06;10415581;28;20057;-77
2022/05/23 16:56:52;;;;;;;7.03;4.18;;;;;;;13.59;100.00;99871.59;10433131;28;20048;-75
2022/05/23 17:01:54;;;;;;;11.40;4.05;;;;;;;13.52;100.00;99877.19;10396075;28;20484;-75
2022/05/23 17:06:54;;;;;;;4.72;3.75;;;;;;;13.51;100.00;99886.41;10422637;28;20045;-75
2022/05/23 17:11:55;;;;;;;8.85;3.88;;;;;;;13.55;100.00;99878.59;10411802;28;20041;-74
2022/05/23 17:16:55;;;;;;;13.77;5.07;;;;;;;13.59;100.00;99893.34;10415802;28;20048;-75
2022/05/23 17:21:55;;;;;;;7.70;3.53;;;;;;;13.62;100.00;99876.56;10413099;28;20033;-75
2022/05/23 17:26:56;;;;;;;5.35;3.78;;;;;;;13.62;100.00;99871.09;10417894;28;20116;-74
2022/05/23 17:31:57;;;;;;;6.00;4.57;;;;;;;13.77;100.00;99881.47;10404592;28;20408;-78
2022/05/23 17:36:57;;;;;;;3.90;3.60;;;;;;;13.94;100.00;99890.47;10421416;28;20405;-77
2022/05/23 17:41:58;;;;;;;4.90;3.25;;;;;;;14.07;100.00;99884.75;10422055;28;20063;-76
2022/05/23 17:46:59;;;;;;;11.48;4.63;;;;;;;14.33;100.00;99882.47;10405266;28;20061;-77
2022/05/23 17:51:59;;;;;;;5.28;4.07;;;;;;;14.49;100.00;99884.38;10387028;28;20042;-76
2022/05/23 17:57:00;;;;;;;5.82;4.50;;;;;;;14.42;100.00;99875.50;10423982;28;20053;-76
2022/05/23 18:02:00;;;;;;;11.07;4.68;;;;;;;14.47;100.00;99875.59;10404683;28;20057;-74
2022/05/23 18:07:00;;;;;;;7.18;3.63;;;;;;;14.43;100.00;99877.19;10424985;28;20440;-75
2022/05/23 18:12:01;;;;;;;11.93;5.20;;;;;;;14.32;100.00;99875.34;10412434;28;20087;-76
2022/05/23 18:22:21;;;;;;;6.72;4.05;;;;;;;14.24;100.00;99881.22;10433103;28;20455;-75
2022/05/23 18:27:21;;;;;;;15.13;4.90;;;;;;;14.21;100.00;99892.59;10435852;28;20037;-76
2022/05/23 18:32:23;;;;;;;6.32;3.90;;;;;;;14.09;100.00;99903.56;10436566;28;20493;-75
2022/05/23 18:37:23;;;;;;;5.35;3.75;;;;;;;13.97;100.00;99922.66;10411491;28;20039;-76
2022/05/23 18:42:24;;;;;;;5.25;3.53;;;;;;;13.84;100.00;99928.41;10421501;28;20037;-74
2022/05/23 18:47:24;;;;;;;5.75;4.15;;;;;;;13.71;100.00;99937.69;10420025;28;20037;-77
2022/05/23 18:52:26;;;;;;;11.70;4.97;;;;;;;13.66;100.00;99940.31;10420504;28;20465;-76
2022/05/23 18:57:27;;;;;;;10.93;4.03;;;;;;;13.62;100.00;99956.25;10404355;28;20104;-75
2022/05/23 19:02:28;;;;;;;2.83;2.63;;;;;;;13.57;100.00;99948.00;10420702;28;20041;-76
2022/05/23 19:07:29;;;;;;;5.07;3.65;;;;;;;13.52;100.00;99952.50;10412491;28;20384;-74
2022/05/23 19:12:29;;;;;;;14.43;4.38;;;;;;;13.50;100.00;99966.38;10409609;28;20045;-73
2022/05/23 19:17:29;;;;;;;4.95;2.75;;;;;;;13.52;100.00;99980.53;10418246;28;20060;-75
2022/05/23 19:22:30;;;;;;;7.60;3.78;;;;;;;13.52;100.00;99975.09;10417616;28;20442;-74
2022/05/23 19:27:30;;;;;;;3.70;3.20;;;;;;;13.59;100.00;99986.69;10419578;28;20030;-75
2022/05/23 19:32:31;;;;;;;10.65;5.00;;;;;;;13.52;100.00;99983.25;10402325;28;20446;-74
2022/05/23 19:37:31;;;;;;;12.60;4.65;;;;;;;13.54;100.00;99997.47;10422651;28;20029;-75
2022/05/23 19:42:32;;;;;;;7.05;4.68;;;;;;;13.56;100.00;100011.66;10417231;28;20128;-75
2022/05/23 19:47:32;;;;;;;8.50;3.67;;;;;;;13.56;100.00;100019.81;10415047;28;20163;-74
2022/05/23 19:52:33;;;;;;;8.57;4.57;;;;;;;13.59;100.00;100013.03;10400125;28;20033;-73
2022/05/23 19:57:33;;;;;;;8.77;5.18;;;;;;;13.57;100.00;100026.06;10398500;28;20033;-73
2022/05/23 20:07:53;;;;;;;7.75;6.32;;;;;;;13.59;100.00;100040.25;10414015;28;20061;-74
2022/05/23 20:12:54;;;;;;;12.98;5.28;;;;;;;13.62;100.00;100039.78;10415739;28;20061;-74
2022/05/23 20:18:16;;;;;;;10.98;5.78;;;;;;;13.65;100.00;100050.19;10415003;28;20041;-77
2022/05/23 20:23:20;;;;;;;8.77;6.68;;;;;;;13.58;100.00;100052.22;10416862;28;20063;-74
2022/05/23 20:28:21;;;;;;;6.82;6.03;;;;;;;13.60;100.00;100050.91;10403794;28;20037;-74
2022/05/23 20:33:21;;;;;;;9.93;8.32;;;;;;;13.62;100.00;100062.34;10437959;28;20123;-76
2022/05/23 20:38:22;;;;;;;15.73;8.02;;;;;;;13.60;100.00;100058.25;10424644;28;20064;-75
2022/05/23 20:43:22;;;;;;;9.77;7.25;;;;;;;13.52;100.00;100048.53;10423730;28;20045;-74
2022/05/23 20:48:23;;;;;;;10.05;8.32;;;;;;;13.55;100.00;100049.97;10424821;28;20029;-76
2022/05/23 20:53:24;;;;;;;21.00;10.05;;;;;;;13.59;100.00;100052.00;10400909;28;20041;-76
2022/05/23 20:58:24;;;;;;;17.85;10.18;;;;;;;13.65;100.00;100048.28;10429889;28;20095;-75
2022/05/23 21:03:24;;;;;;;10.63;8.98;;;;;;;13.68;100.00;100036.94;10406167;28;20037;-76
2022/05/23 21:08:25;;;;;;;10.73;8.82;;;;;;;13.71;100.00;100044.59;10405158;28;20358;-75
2022/05/23 21:13:26;;;;;;;13.85;9.68;;;;;;;13.75;100.00;100044.13;10423175;28;20083;-76
2022/05/23 21:18:26;;;;;;;18.13;11.68;;;;;;;13.76;100.00;100043.09;10424131;28;20385;-77
2022/05/23 21:23:27;;;;;;;12.55;11.27;;;;;;;13.71;100.00;100036.44;10424213;28;20449;-75
2022/05/23 21:28:27;;;;;;;17.25;12.80;;;;;;;13.75;100.00;100033.25;10408977;28;20057;-76
2022/05/23 21:33:28;;;;;;;22.65;13.27;;;;;;;13.77;100.00;100031.94;10415717;28;20068;-74
2022/05/23 21:38:28;;;;;;;12.13;10.82;;;;;;;13.82;100.00;100032.06;10434104;28;20124;-76
2022/05/23 21:48:47;;;;;;;17.55;13.82;;;;;;;13.93;100.00;100033.09;10433487;28;20461;-76
2022/05/23 21:53:48;;;;;;;14.98;12.90;;;;;;;13.97;100.00;100050.59;10387235;28;20033;-76
2022/05/23 21:58:48;;;;;;;17.90;12.80;;;;;;;13.99;100.00;100047.66;10420410;28;20037;-76
2022/05/23 22:03:49;;;;;;;18.77;14.00;;;;;;;13.97;100.00;100042.41;10423963;28;20061;-77
2022/05/23 22:08:49;;;;;;;21.55;12.82;;;;;;;13.89;100.00;100042.81;10421641;28;20381;-75
2022/05/23 22:13:50;;;;;;;16.60;13.07;;;;;;;13.85;100.00;100044.38;10419561;28;20044;-75
2022/05/23 22:18:51;;;;;;;16.10;11.95;;;;;;;13.83;100.00;100051.94;10420707;28;20029;-76
2022/05/23 22:23:51;;;;;;;14.32;11.55;;;;;;;13.84;100.00;100057.13;10419754;28;20063;-75
2022/05/23 22:28:52;;;;;;;11.70;9.57;;;;;;;13.85;100.00;100053.34;10402294;28;20034;-76
2022/05/23 22:33:52;;;;;;;12.50;7.47;;;;;;;13.86;100.00;100037.84;10419355;28;20377;-74
2022/05/23 22:38:52;;;;;;;11.85;9.75;;;;;;;13.86;100.00;100046.84;10402163;28;20037;-76
2022/05/23 22:43:53;;;;;;;18.35;9.00;;;;;;;13.89;100.00;100049.09;10417726;28;20041;-76
2022/05/23 22:48:55;;;;;;;20.58;11.15;;;;;;;13.95;100.00;100039.13;10421017;28;20063;-76
2022/05/23 22:53:55;;;;;;;12.98;11.45;;;;;;;13.99;100.00;100037.56;10419148;28;20037;-75
2022/05/23 22:58:57;;;;;;;12.55;9.52;;;;;;;13.99;100.00;100029.41;10418939;28;20116;-74
2022/05/23 23:09:16;;;;;;;21.35;12.15;;;;;;;13.98;100.00;100033.22;10418635;28;20029;-75
2022/05/23 23:14:16;;;;;;;16.35;10.55;;;;;;;13.88;100.00;100039.28;10400312;28;20034;-74
2022/05/23 23:19:17;;;;;;;20.58;10.30;;;;;;;13.91;100.00;100044.25;10417785;28;20041;-77
2022/05/23 23:24:17;;;;;;;10.63;9.23;;;;;;;13.93;100.00;100033.91;10401464;28;20108;-73
2022/05/23 23:29:18;;;;;;;11.50;8.85;;;;;;;13.95;100.00;100048.13;10418131;28;20507;-75
2022/05/23 23:39:37;;;;;;;13.75;8.57;;;;;;;13.92;100.00;100040.44;10417152;28;20136;-74
2022/05/23 23:44:38;;;;;;;20.30;9.52;;;;;;;13.99;100.00;100043.03;10417011;28;20033;-75
2022/05/23 23:49:40;;;;;;;10.25;8.40;;;;;;;13.93;100.00;100033.09;10416836;28;20037;-74
2022/05/23 23:54:41;;;;;;;14.95;8.82;;;;;;;13.91;100.00;100035.22;10403624;28;20037;-76
2022/05/23 23:59:41;;;;;;;22.52;9.07;;;;;;;13.79;100.00;100035.25;10421064;28;20083;-75
